sensor_id;sensor_type;location;lat;lon;timestamp;pressure;altitude;pressure_sealevel;temperature;humidity
47166;BME280;32930;51.112;13.762;2023-04-02T00:01:33;98445.53;;;10.24;100.00
47166;BME280;32930;51.112;13.762;2023-04-02T00:09:20;98469.31;;;10.41;99.76
47166;BME280;32930;51.112;13.762;2023-04-02T00:11:49;98466.88;;;10.27;100.00
47166;BME280;32930;51.112;13.762;2023-04-02T00:16:52;98478.81;;;10.31;100.00
47166;BME280;32930;51.112;13.762;2023-04-02T00:19:40;98489.41;;;9.94;99.77
47166;BME280;32930;51.112;13.762;2023-04-02T00:22:13;98482.44;;;10.07;100.00
47166;BME280;32930;51.112;13.762;2023-04-02T00:24:40;98490.97;;;10.08;99.56
47166;BME280;32930;51.112;13.762;2023-04-02T00:27:11;98495.38;;;9.95;100.00
47166;BME280;32930;51.112;13.762;2023-04-02T00:29:54;98504.72;;;10.01;98.73
47166;BME280;32930;51.112;13.762;2023-04-02T00:32:30;98508.88;;;10.11;98.26
47166;BME280;32930;51.112;13.762;2023-04-02T00:34:56;98508.13;;;10.03;99.36
47166;BME280;32930;51.112;13.762;2023-04-02T00:37:25;98510.75;;;9.95;100.00
47166;BME280;32930;51.112;13.762;2023-04-02T00:40:27;98517.72;;;9.79;100.00
47166;BME280;32930;51.112;13.762;2023-04-02T00:42:57;98517.81;;;9.68;100.00
47166;BME280;32930;51.112;13.762;2023-04-02T00:45:27;98527.91;;;9.85;99.03
47166;BME280;32930;51.112;13.762;2023-04-02T00:47:54;98524.66;;;9.68;100.00
47166;BME280;32930;51.112;13.762;2023-04-02T01:06:27;98552.97;;;9.39;98.75
47166;BME280;32930;51.112;13.762;2023-04-02T02:52:34;98762.09;;;8.45;92.58
47166;BME280;32930;51.112;13.762;2023-04-02T02:55:10;98758.72;;;8.40;93.29
47166;BME280;32930;51.112;13.762;2023-04-02T02:57:47;98765.50;;;8.36;92.37
47166;BME280;32930;51.112;13.762;2023-04-02T03:00:14;98779.06;;;8.04;92.53
47166;BME280;32930;51.112;13.762;2023-04-02T03:02:43;98779.06;;;8.18;92.92
47166;BME280;32930;51.112;13.762;2023-04-02T03:05:16;98768.84;;;8.12;92.59
47166;BME280;32930;51.112;13.762;2023-04-02T03:07:45;98788.44;;;8.15;92.57
47166;BME280;32930;51.112;13.762;2023-04-02T03:10:20;98792.59;;;7.88;93.01
47166;BME280;32930;51.112;13.762;2023-04-02T03:13:23;98800.31;;;7.99;91.87
47166;BME280;32930;51.112;13.762;2023-04-02T03:21:59;98815.59;;;7.97;90.29
47166;BME280;32930;51.112;13.762;2023-04-02T03:24:51;98826.63;;;7.84;90.23
47166;BME280;32930;51.112;13.762;2023-04-02T03:27:28;98833.44;;;7.88;90.23
47166;BME280;32930;51.112;13.762;2023-04-02T03:30:28;98846.28;;;8.02;89.97
47166;BME280;32930;51.112;13.762;2023-04-02T03:33:03;98844.53;;;7.90;89.19
47166;BME280;32930;51.112;13.762;2023-04-02T03:35:32;98850.50;;;7.97;90.12
47166;BME280;32930;51.112;13.762;2023-04-02T03:38:23;98846.22;;;7.89;90.51
47166;BME280;32930;51.112;13.762;2023-04-02T03:41:10;98859.81;;;7.84;90.27
47166;BME280;32930;51.112;13.762;2023-04-02T03:43:44;98865.81;;;7.92;92.25
47166;BME280;32930;51.112;13.762;2023-04-02T03:46:41;98868.31;;;7.84;91.80
47166;BME280;32930;51.112;13.762;2023-04-02T05:24:52;99100.56;;;6.93;89.63
47166;BME280;32930;51.112;13.762;2023-04-02T09:08:56;99511.25;;;6.58;77.01
47166;BME280;32930;51.112;13.762;2023-04-02T09:12:05;99512.72;;;6.47;76.06
47166;BME280;32930;51.112;13.762;2023-04-02T12:13:17;99765.81;;;7.18;71.68
47166;BME280;32930;51.112;13.762;2023-04-02T12:15:47;99770.03;;;7.16;71.29
47166;BME280;32930;51.112;13.762;2023-04-02T12:47:43;99801.34;;;7.47;69.21
47166;BME280;32930;51.112;13.762;2023-04-02T13:49:00;99865.66;;;7.32;69.46
47166;BME280;32930;51.112;13.762;2023-04-02T13:51:40;99875.84;;;7.32;69.69
47166;BME280;32930;51.112;13.762;2023-04-02T13:54:12;99881.09;;;7.38;70.59
47166;BME280;32930;51.112;13.762;2023-04-02T13:56:39;99887.56;;;7.24;69.66
47166;BME280;32930;51.112;13.762;2023-04-02T13:59:05;99885.22;;;7.32;68.46
47166;BME280;32930;51.112;13.762;2023-04-02T14:18:36;99897.47;;;7.12;68.28
47166;BME280;32930;51.112;13.762;2023-04-02T14:24:13;99907.75;;;7.15;67.31
47166;BME280;32930;51.112;13.762;2023-04-02T14:29:34;99905.97;;;7.12;67.29
47166;BME280;32930;51.112;13.762;2023-04-02T14:45:11;99925.50;;;7.10;67.13
47166;BME280;32930;51.112;13.762;2023-04-02T14:47:56;99920.88;;;7.30;67.08
47166;BME280;32930;51.112;13.762;2023-04-02T14:50:36;99933.38;;;7.19;66.69
47166;BME280;32930;51.112;13.762;2023-04-02T15:15:50;99939.22;;;7.15;66.42
47166;BME280;32930;51.112;13.762;2023-04-02T16:12:53;99999.47;;;7.43;67.61
47166;BME280;32930;51.112;13.762;2023-04-02T17:40:05;100080.88;;;7.34;69.10
47166;BME280;32930;51.112;13.762;2023-04-02T17:48:36;100076.69;;;7.35;70.02
47166;BME280;32930;51.112;13.762;2023-04-02T17:59:43;100097.69;;;7.26;70.84
47166;BME280;32930;51.112;13.762;2023-04-02T18:12:52;100105.38;;;7.28;71.31
47166;BME280;32930;51.112;13.762;2023-04-02T18:18:17;100116.25;;;7.20;71.73
47166;BME280;32930;51.112;13.762;2023-04-02T18:21:30;100122.22;;;7.21;70.97
47166;BME280;32930;51.112;13.762;2023-04-02T18:58:26;100168.91;;;7.18;72.94
47166;BME280;32930;51.112;13.762;2023-04-02T19:00:55;100174.72;;;7.13;72.90
47166;BME280;32930;51.112;13.762;2023-04-02T19:04:14;100173.31;;;7.23;73.63
47166;BME280;32930;51.112;13.762;2023-04-02T19:06:23;100179.75;;;7.10;72.65
47166;BME280;32930;51.112;13.762;2023-04-02T19:08:58;100184.13;;;7.15;73.13
47166;BME280;32930;51.112;13.762;2023-04-02T19:11:25;100179.94;;;7.17;73.02
47166;BME280;32930;51.112;13.762;2023-04-02T19:14:14;100188.47;;;7.18;73.90
47166;BME280;32930;51.112;13.762;2023-04-02T19:19:29;100188.47;;;7.18;72.99
47166;BME280;32930;51.112;13.762;2023-04-02T19:22:11;100186.44;;;7.06;73.96
47166;BME280;32930;51.112;13.762;2023-04-02T19:24:45;100193.25;;;7.07;73.14
47166;BME280;32930;51.112;13.762;2023-04-02T19:33:38;100205.34;;;7.13;73.73
47166;BME280;32930;51.112;13.762;2023-04-02T19:39:38;100208.00;;;7.17;73.93
47166;BME280;32930;51.112;13.762;2023-04-02T19:42:31;100216.59;;;7.19;73.73
47166;BME280;32930;51.112;13.762;2023-04-02T19:45:20;100209.31;;;7.03;73.94
47166;BME280;32930;51.112;13.762;2023-04-02T19:47:46;100212.56;;;6.99;74.38
47166;BME280;32930;51.112;13.762;2023-04-02T19:50:11;100209.88;;;6.94;74.46
47166;BME280;32930;51.112;13.762;2023-04-02T19:52:37;100222.72;;;6.97;73.52
47166;BME280;32930;51.112;13.762;2023-04-02T19:55:03;100216.53;;;7.18;73.45
47166;BME280;32930;51.112;13.762;2023-04-02T19:57:28;100218.69;;;7.04;73.34
47166;BME280;32930;51.112;13.762;2023-04-02T19:59:55;100215.41;;;7.08;73.47
47166;BME280;32930;51.112;13.762;2023-04-02T20:02:20;100221.69;;;6.91;73.80
47166;BME280;32930;51.112;13.762;2023-04-02T20:04:46;100221.97;;;7.00;73.91
47166;BME280;32930;51.112;13.762;2023-04-02T20:07:15;100219.75;;;7.12;73.50
47166;BME280;32930;51.112;13.762;2023-04-02T20:09:40;100216.97;;;7.03;73.92
47166;BME280;32930;51.112;13.762;2023-04-02T20:15:28;100225.50;;;7.05;73.70
47166;BME280;32930;51.112;13.762;2023-04-02T21:33:18;100293.91;;;6.64;66.93
47166;BME280;32930;51.112;13.762;2023-04-02T21:35:43;100293.56;;;6.79;66.53
47166;BME280;32930;51.112;13.762;2023-04-02T22:08:03;100315.66;;;6.53;65.84
47166;BME280;32930;51.112;13.762;2023-04-02T22:10:29;100323.59;;;6.62;66.59
47166;BME280;32930;51.112;13.762;2023-04-02T22:12:54;100316.19;;;6.44;66.60
47166;BME280;32930;51.112;13.762;2023-04-02T22:15:20;100320.13;;;6.35;66.62
47166;BME280;32930;51.112;13.762;2023-04-02T22:17:45;100322.22;;;6.46;65.95
47166;BME280;32930;51.112;13.762;2023-04-02T22:20:11;100323.50;;;6.59;65.90
47166;BME280;32930;51.112;13.762;2023-04-02T22:22:36;100322.22;;;6.46;65.89
47166;BME280;32930;51.112;13.762;2023-04-02T22:25:02;100331.69;;;6.50;64.94
47166;BME280;32930;51.112;13.762;2023-04-02T22:27:28;100325.41;;;6.41;65.04
47166;BME280;32930;51.112;13.762;2023-04-02T22:29:53;100330.91;;;6.28;64.76
47166;BME280;32930;51.112;13.762;2023-04-02T22:32:19;100331.19;;;6.37;65.46
47166;BME280;32930;51.112;13.762;2023-04-02T22:34:45;100333.06;;;6.41;64.65
47166;BME280;32930;51.112;13.762;2023-04-02T22:37:10;100336.03;;;6.29;65.11
47166;BME280;32930;51.112;13.762;2023-04-02T22:39:36;100333.34;;;6.24;64.22
47166;BME280;32930;51.112;13.762;2023-04-02T22:42:04;100335.94;;;6.26;64.64
47166;BME280;32930;51.112;13.762;2023-04-02T22:44:29;100342.28;;;6.13;64.40
47166;BME280;32930;51.112;13.762;2023-04-02T22:46:55;100338.78;;;6.11;64.48
47166;BME280;32930;51.112;13.762;2023-04-02T22:49:20;100342.53;;;6.21;64.81
47166;BME280;32930;51.112;13.762;2023-04-02T22:51:46;100351.13;;;6.23;64.77
47166;BME280;32930;51.112;13.762;2023-04-02T22:54:12;100351.28;;;6.28;65.02
47166;BME280;32930;51.112;13.762;2023-04-02T22:56:37;100355.38;;;6.24;63.20
47166;BME280;32930;51.112;13.762;2023-04-02T22:59:03;100355.28;;;6.21;63.69
47166;BME280;32930;51.112;13.762;2023-04-02T23:01:32;100354.25;;;6.16;63.47
47166;BME280;32930;51.112;13.762;2023-04-02T23:03:57;100357.16;;;6.25;63.64
47166;BME280;32930;51.112;13.762;2023-04-02T23:06:24;100367.53;;;6.07;62.79
47166;BME280;32930;51.112;13.762;2023-04-02T23:08:50;100367.25;;;5.99;62.54
47166;BME280;32930;51.112;13.762;2023-04-02T23:11:19;100366.81;;;5.89;61.57
47166;BME280;32930;51.112;13.762;2023-04-02T23:16:14;100358.66;;;5.96;62.50
47166;BME280;32930;51.112;13.762;2023-04-02T23:18:41;100368.91;;;5.99;61.43
47166;BME280;32930;51.112;13.762;2023-04-02T23:21:08;100372.50;;;5.81;61.73
47166;BME280;32930;51.112;13.762;2023-04-02T23:23:35;100376.41;;;5.73;61.81
47166;BME280;32930;51.112;13.762;2023-04-02T23:26:09;100378.41;;;5.80;62.58
47166;BME280;32930;51.112;13.762;2023-04-02T23:28:37;100374.56;;;5.69;61.57
47166;BME280;32930;51.112;13.762;2023-04-02T23:31:04;100376.84;;;5.84;61.96
47166;BME280;32930;51.112;13.762;2023-04-02T23:33:31;100377.50;;;5.80;61.96
47166;BME280;32930;51.112;13.762;2023-04-02T23:35:57;100380.28;;;5.64;61.97
47166;BME280;32930;51.112;13.762;2023-04-02T23:38:23;100382.34;;;5.72;62.51
47166;BME280;32930;51.112;13.762;2023-04-02T23:40:49;100377.84;;;5.89;61.73
47166;BME280;32930;51.112;13.762;2023-04-02T23:43:15;100377.69;;;5.85;61.44
47166;BME280;32930;51.112;13.762;2023-04-02T23:45:45;100389.25;;;5.76;60.52
47166;BME280;32930;51.112;13.762;2023-04-02T23:48:11;100382.91;;;5.65;61.38
47166;BME280;32930;51.112;13.762;2023-04-02T23:50:36;100377.81;;;5.65;61.32
47166;BME280;32930;51.112;13.762;2023-04-02T23:53:02;100383.38;;;5.55;61.55
47166;BME280;32930;51.112;13.762;2023-04-02T23:55:27;100381.03;;;5.61;61.65
47166;BME280;32930;51.112;13.762;2023-04-02T23:57:53;100382.19;;;5.47;61.86
